createdAt,value
2024-02-12T00:02:20.205Z,96421.38
2024-02-12T00:04:47.343Z,96417.00
2024-02-12T00:07:14.611Z,96417.00
2024-02-12T00:09:41.236Z,96422.97
2024-02-12T00:12:07.691Z,96426.75
2024-02-12T00:14:34.135Z,96425.19
2024-02-12T00:17:05.966Z,96425.50
2024-02-12T00:19:35.496Z,96428.16
2024-02-12T00:22:02.325Z,96434.47
2024-02-12T00:24:31.365Z,96431.34
2024-02-12T00:27:04.349Z,96433.25
2024-02-12T00:29:33.701Z,96431.34
2024-02-12T00:32:01.576Z,96431.97
2024-02-12T00:34:29.657Z,96432.63
2024-02-12T00:36:56.637Z,96429.50
2024-02-12T00:39:24.747Z,96436.25
2024-02-12T00:41:53.903Z,96427.47
2024-02-12T00:44:21.323Z,96427.00
2024-02-12T00:46:48.241Z,96435.63
2024-02-12T00:49:17.691Z,96431.41
2024-02-12T00:51:44.147Z,96442.75
2024-02-12T00:54:11.660Z,96441.16
2024-02-12T00:56:38.633Z,96441.47
2024-02-12T00:59:05.995Z,96444.78
2024-02-12T01:01:32.392Z,96447.75
2024-02-12T01:03:58.821Z,96453.44
2024-02-12T01:06:25.897Z,96449.97
2024-02-12T01:08:52.459Z,96449.50
2024-02-12T01:11:19.188Z,96456.28
2024-02-12T01:13:46.425Z,96462.69
2024-02-12T01:16:12.817Z,96459.25
2024-02-12T01:18:41.094Z,96460.66
2024-02-12T01:21:07.785Z,96462.81
2024-02-12T01:23:35.383Z,96471.94
2024-02-12T01:26:01.989Z,96457.66
2024-02-12T01:28:28.716Z,96458.44
2024-02-12T01:30:55.192Z,96470.53
2024-02-12T01:33:21.951Z,96456.72
2024-02-12T01:35:50.008Z,96458.94
2024-02-12T01:38:17.032Z,96464.88
2024-02-12T01:40:43.439Z,96466.78
2024-02-12T01:43:23.371Z,96466.63
2024-02-12T01:45:49.741Z,96474.16
2024-02-12T01:48:19.702Z,96471.03
2024-02-12T01:50:46.191Z,96473.72
2024-02-12T01:53:13.103Z,96480.75
2024-02-12T01:55:39.493Z,96479.22
2024-02-12T01:58:06.216Z,96473.72
2024-02-12T02:00:33.343Z,96476.38
2024-02-12T02:05:29.289Z,96491.44
2024-02-12T02:07:58.314Z,96482.66
2024-02-12T02:10:25.054Z,96488.28
2024-02-12T02:12:51.581Z,96485.47
2024-02-12T02:15:17.974Z,96485.00
2024-02-12T02:17:44.506Z,96493.00
2024-02-12T02:20:13.575Z,96486.41
2024-02-12T02:22:40.284Z,96484.38
2024-02-12T02:25:06.897Z,96494.88
2024-02-12T02:27:34.871Z,96499.59
2024-02-12T02:30:02.085Z,96499.13
2024-02-12T02:32:28.545Z,96500.53
2024-02-12T02:34:56.670Z,96495.81
2024-02-12T02:37:23.420Z,96493.00
2024-02-12T02:39:49.824Z,96496.13
2024-02-12T02:42:16.459Z,96498.94
2024-02-12T02:44:44.348Z,96490.94
2024-02-12T02:47:11.792Z,96491.88
2024-02-12T02:49:38.906Z,96503.94
2024-02-12T02:52:05.305Z,96499.50
2024-02-12T02:54:34.724Z,96502.81
2024-02-12T02:57:01.109Z,96502.03
2024-02-12T02:59:27.544Z,96504.84
2024-02-12T03:01:54.222Z,96500.28
2024-02-12T03:04:20.642Z,96503.09
2024-02-12T03:06:47.082Z,96499.66
2024-02-12T03:09:14.822Z,96510.03
2024-02-12T03:11:41.443Z,96507.66
2024-02-12T03:14:10.066Z,96516.75
2024-02-12T03:16:36.765Z,96515.97
2024-02-12T03:19:03.295Z,96519.41
2024-02-12T03:21:29.955Z,96524.28
2024-02-12T03:23:56.333Z,96525.34
2024-02-12T03:26:22.871Z,96518.78
2024-02-12T03:28:50.507Z,96519.72
2024-02-12T03:31:17.203Z,96529.28
2024-02-12T03:33:44.020Z,96523.31
2024-02-12T03:36:10.976Z,96527.25
2024-02-12T03:38:38.423Z,96533.06
2024-02-12T03:41:06.970Z,96531.78
2024-02-12T03:43:33.444Z,96532.88
2024-02-12T03:46:01.239Z,96544.34
2024-02-12T03:48:46.341Z,96539.63
2024-02-12T03:51:31.785Z,96539.63
2024-02-12T03:54:16.921Z,96540.25
2024-02-12T03:57:03.546Z,96539.28
2024-02-12T03:59:48.465Z,96545.72
2024-02-12T04:02:14.919Z,96551.84
2024-02-12T04:04:43.343Z,96545.72
2024-02-12T04:07:09.856Z,96554.00
2024-02-12T04:09:42.543Z,96559.34
2024-02-12T04:12:13.171Z,96558.09
2024-02-12T04:14:43.844Z,96559.97
2024-02-12T04:17:10.771Z,96553.69
2024-02-12T04:19:37.627Z,96556.94
2024-02-12T04:22:05.736Z,96567.13
2024-02-12T04:24:36.705Z,96563.81
2024-02-12T04:27:05.034Z,96574.16
2024-02-12T04:29:31.631Z,96573.06
2024-02-12T04:31:58.526Z,96580.28
2024-02-12T04:34:24.915Z,96589.06
2024-02-12T04:36:56.384Z,96595.94
2024-02-12T04:39:22.777Z,96598.63
2024-02-12T04:41:52.338Z,96592.81
2024-02-12T04:44:18.926Z,96592.81
2024-02-12T04:46:46.471Z,96601.13
2024-02-12T04:49:13.563Z,96599.53
2024-02-12T04:51:39.990Z,96606.28
2024-02-12T04:54:06.395Z,96603.94
2024-02-12T04:56:32.850Z,96606.09
2024-02-12T04:58:59.439Z,96612.53
2024-02-12T05:01:28.687Z,96617.06
2024-02-12T05:03:55.186Z,96620.81
2024-02-12T05:06:21.608Z,96619.22
2024-02-12T05:08:48.589Z,96617.38
2024-02-12T05:11:15.501Z,96618.16
2024-02-12T05:13:41.982Z,96628.03
2024-02-12T05:16:09.274Z,96634.44
2024-02-12T05:18:55.079Z,96631.28
2024-02-12T05:21:40.465Z,96629.22
2024-02-12T05:24:06.961Z,96630.31
2024-02-12T05:26:33.491Z,96633.47
2024-02-12T05:29:00.230Z,96638.31
2024-02-12T05:31:26.610Z,96636.94
2024-02-12T05:33:53.185Z,96634.88
2024-02-12T05:36:21.422Z,96637.84
2024-02-12T05:38:48.002Z,96638.91
2024-02-12T05:41:14.910Z,96645.34
2024-02-12T05:43:43.023Z,96638.75
2024-02-12T05:46:09.690Z,96641.69
2024-02-12T05:48:38.525Z,96644.69
2024-02-12T05:51:05.098Z,96658.31
2024-02-12T05:53:31.597Z,96654.81
2024-02-12T05:55:58.329Z,96660.47
2024-02-12T05:58:28.110Z,96662.91
2024-02-12T06:00:55.001Z,96660.25
2024-02-12T06:03:21.431Z,96673.09
2024-02-12T06:05:49.121Z,96667.75
2024-02-12T06:08:16.285Z,96672.00
2024-02-12T06:10:43.451Z,96681.53
2024-02-12T06:13:10.043Z,96679.41
2024-02-12T06:15:36.430Z,96682.88
2024-02-12T06:18:02.911Z,96685.06
2024-02-12T06:20:29.332Z,96687.72
2024-02-12T06:22:55.715Z,96687.19
2024-02-12T06:25:24.568Z,96701.59
2024-02-12T06:27:50.935Z,96712.56
2024-02-12T06:30:17.354Z,96701.09
2024-02-12T06:32:43.800Z,96713.16
2024-02-12T06:35:10.365Z,96712.94
2024-02-12T06:37:36.737Z,96719.06
2024-02-12T06:40:07.901Z,96726.56
2024-02-12T06:42:34.635Z,96724.19
2024-02-12T06:45:01.098Z,96732.47
2024-02-12T06:47:27.613Z,96736.25
2024-02-12T06:49:54.065Z,96734.06
2024-02-12T06:52:20.616Z,96737.22
2024-02-12T06:54:48.975Z,96742.53
2024-02-12T06:57:15.657Z,96751.31
2024-02-12T06:59:45.050Z,96742.03
2024-02-12T07:02:11.601Z,96747.38
2024-02-12T07:04:38.063Z,96756.75
2024-02-12T07:07:04.776Z,96765.06
2024-02-12T07:09:31.183Z,96765.06
2024-02-12T07:11:57.554Z,96766.41
2024-02-12T07:14:24.042Z,96777.84
2024-02-12T07:16:50.699Z,96779.25
2024-02-12T07:19:17.130Z,96789.09
2024-02-12T07:21:43.552Z,96777.19
2024-02-12T07:24:10.687Z,96795.81
2024-02-12T07:26:37.361Z,96793.16
2024-02-12T07:29:03.957Z,96795.59
2024-02-12T07:31:30.473Z,96794.25
2024-02-12T07:33:57.036Z,96797.38
2024-02-12T07:36:23.557Z,96797.88
2024-02-12T07:38:49.969Z,96807.44
2024-02-12T07:41:16.475Z,96813.84
2024-02-12T07:43:43.526Z,96820.25
2024-02-12T07:48:40.570Z,96820.25
2024-02-12T07:51:07.024Z,96823.69
2024-02-12T07:53:33.487Z,96828.13
2024-02-12T07:55:59.919Z,96831.00
2024-02-12T07:58:26.354Z,96833.34
2024-02-12T08:00:52.781Z,96824.88
2024-02-12T08:03:19.376Z,96831.31
2024-02-12T08:05:48.723Z,96838.50
2024-02-12T08:08:15.177Z,96840.38
2024-02-12T08:10:41.838Z,96841.44
2024-02-12T08:13:08.379Z,96845.19
2024-02-12T08:15:34.956Z,96850.03
2024-02-12T08:18:01.516Z,96856.63
2024-02-12T08:20:28.136Z,96855.06
2024-02-12T08:22:57.796Z,96854.75
2024-02-12T08:25:24.223Z,96867.78
2024-02-12T08:27:50.951Z,96864.03
2024-02-12T08:30:17.345Z,96870.94
2024-02-12T08:32:43.823Z,96869.66
2024-02-12T08:35:10.332Z,96871.81
2024-02-12T08:37:36.784Z,96877.75
2024-02-12T08:40:06.205Z,96882.56
2024-02-12T08:42:32.571Z,96892.44
2024-02-12T08:45:02.021Z,96888.56
2024-02-12T08:47:30.581Z,96911.16
2024-02-12T08:49:58.991Z,96907.00
2024-02-12T08:52:25.348Z,96922.97
2024-02-12T08:54:51.717Z,96920.59
2024-02-12T08:57:18.110Z,96917.16
2024-02-12T08:59:44.800Z,96916.56
2024-02-12T09:02:11.243Z,96917.34
2024-02-12T09:04:37.909Z,96911.25
2024-02-12T09:07:05.132Z,96917.66
2024-02-12T09:09:31.597Z,96928.31
2024-02-12T09:11:59.381Z,96929.38
2024-02-12T09:14:25.819Z,96933.13
2024-02-12T09:16:52.237Z,96931.53
2024-02-12T09:19:18.729Z,96928.88
2024-02-12T09:21:45.807Z,96938.53
2024-02-12T09:24:13.080Z,96940.69
2024-02-12T09:26:39.457Z,96936.66
2024-02-12T09:29:05.962Z,96937.16
2024-02-12T09:31:35.123Z,96942.19
2024-02-12T09:34:03.627Z,96950.97
2024-02-12T09:36:30.379Z,96957.06
2024-02-12T09:38:56.895Z,96957.84
2024-02-12T09:41:27.253Z,96964.75
2024-02-12T09:43:53.820Z,96965.34
2024-02-12T09:46:20.205Z,96967.41
2024-02-12T09:48:47.907Z,96973.25
2024-02-12T09:51:15.200Z,96978.56
2024-02-12T09:53:43.475Z,96978.47
2024-02-12T09:56:10.809Z,96984.38
2024-02-12T09:58:38.592Z,96992.38
2024-02-12T10:01:06.367Z,96983.31
2024-02-12T10:03:33.636Z,96989.72
2024-02-12T10:06:00.175Z,96990.50
2024-02-12T10:08:27.082Z,96992.38
2024-02-12T10:10:53.567Z,97005.19
2024-02-12T10:13:20.976Z,97000.66
2024-02-12T10:15:47.933Z,97005.19
2024-02-12T10:18:17.277Z,97008.16
2024-02-12T10:20:44.165Z,97020.66
2024-02-12T10:23:10.976Z,97017.50
2024-02-12T10:25:41.081Z,97020.16
2024-02-12T10:28:07.522Z,97019.66
2024-02-12T10:30:34.694Z,97030.50
2024-02-12T10:33:04.760Z,97029.22
2024-02-12T10:35:31.664Z,97032.91
2024-02-12T10:37:58.490Z,97033.28
2024-02-12T10:40:27.791Z,97040.75
2024-02-12T10:42:54.248Z,97035.50
2024-02-12T10:45:20.859Z,97046.75
2024-02-12T10:47:49.143Z,97044.19
2024-02-12T10:50:15.860Z,97043.91
2024-02-12T10:52:47.631Z,97052.41
2024-02-12T10:55:14.055Z,97042.22
2024-02-12T10:57:40.517Z,97049.91
2024-02-12T11:00:07.243Z,97054.66
2024-02-12T11:02:46.201Z,97052.59
2024-02-12T11:05:13.372Z,97054.19
2024-02-12T11:07:43.520Z,97050.13
2024-02-12T11:10:10.418Z,97052.91
2024-02-12T11:12:42.653Z,97053.59
2024-02-12T11:15:13.635Z,97054.88
2024-02-12T11:17:40.506Z,97058.91
2024-02-12T11:20:16.968Z,97060.59
2024-02-12T11:22:46.338Z,97065.13
2024-02-12T11:27:54.136Z,97065.75
2024-02-12T11:30:20.921Z,97070.56
2024-02-12T11:32:47.842Z,97083.88
2024-02-12T11:35:15.190Z,97080.03
2024-02-12T11:37:42.855Z,97092.47
2024-02-12T11:40:13.683Z,97086.38
2024-02-12T11:42:44.852Z,97087.94
2024-02-12T11:45:11.233Z,97094.09
2024-02-12T11:47:37.722Z,97096.53
2024-02-12T11:50:04.412Z,97093.38
2024-02-12T11:52:33.579Z,97091.91
2024-02-12T11:55:00.005Z,97088.25
2024-02-12T11:57:28.879Z,97090.03
2024-02-12T11:59:59.137Z,97101.91
2024-02-12T12:02:25.748Z,97104.47
2024-02-12T12:04:52.258Z,97102.88
2024-02-12T12:07:18.860Z,97097.75
2024-02-12T12:09:45.284Z,97103.88
2024-02-12T12:12:11.733Z,97108.44
2024-02-12T12:14:39.362Z,97106.84
2024-02-12T12:17:29.080Z,97108.84
2024-02-12T12:19:53.876Z,97100.94
2024-02-12T12:22:20.269Z,97099.34
2024-02-12T12:24:46.634Z,97104.19
2024-02-12T12:27:23.165Z,97107.94
2024-02-12T12:29:49.633Z,97106.06
2024-02-12T12:32:16.750Z,97104.78
2024-02-12T12:34:43.584Z,97101.63
2024-02-12T12:37:14.143Z,97105.88
2024-02-12T12:39:40.890Z,97108.22
2024-02-12T12:42:08.907Z,97116.16
2024-02-12T12:44:36.201Z,97113.75
2024-02-12T12:47:02.614Z,97112.38
2024-02-12T12:49:29.127Z,97114.53
2024-02-12T12:51:55.554Z,97116.84
2024-02-12T12:54:23.354Z,97119.97
2024-02-12T12:56:50.940Z,97119.50
2024-02-12T12:59:17.844Z,97117.41
2024-02-12T13:01:44.432Z,97125.41
2024-02-12T13:04:12.598Z,97124.44
2024-02-12T13:06:40.022Z,97122.06
2024-02-12T13:09:08.981Z,97125.03
2024-02-12T13:11:35.531Z,97123.25
2024-02-12T13:14:06.073Z,97131.53
2024-02-12T13:16:32.478Z,97138.47
2024-02-12T13:18:58.923Z,97141.03
2024-02-12T13:21:25.506Z,97147.44
2024-02-12T13:23:53.553Z,97142.72
2024-02-12T13:26:21.419Z,97144.59
2024-02-12T13:28:48.881Z,97148.06
2024-02-12T13:31:16.069Z,97141.16
2024-02-12T13:33:42.971Z,97146.53
2024-02-12T13:36:11.519Z,97154.53
2024-02-12T13:38:40.782Z,97146.53
2024-02-12T13:41:09.085Z,97155.06
2024-02-12T13:43:35.497Z,97163.50
2024-02-12T13:46:02.893Z,97162.31
2024-02-12T13:48:29.405Z,97164.97
2024-02-12T13:50:56.446Z,97170.88
2024-02-12T13:53:23.777Z,97171.19
2024-02-12T13:55:52.317Z,97185.88
2024-02-12T13:58:22.939Z,97184.63
2024-02-12T14:01:04.164Z,97192.88
2024-02-12T14:03:37.561Z,97191.13
2024-02-12T14:06:05.113Z,97192.34
2024-02-12T14:08:33.024Z,97197.88
2024-02-12T14:11:00.549Z,97193.03
2024-02-12T14:13:27.067Z,97202.59
2024-02-12T14:16:05.576Z,97205.28
2024-02-12T14:18:37.171Z,97210.22
2024-02-12T14:21:03.742Z,97219.56
2024-02-12T14:23:31.946Z,97222.84
2024-02-12T14:25:58.781Z,97223.91
2024-02-12T14:28:26.693Z,97219.19
2024-02-12T14:30:54.552Z,97224.78
2024-02-12T14:33:22.559Z,97224.00
2024-02-12T14:35:50.920Z,97232.00
2024-02-12T14:38:18.074Z,97238.31
2024-02-12T14:40:44.692Z,97237.44
2024-02-12T14:43:16.615Z,97231.03
2024-02-12T14:45:43.671Z,97232.41
2024-02-12T14:48:10.585Z,97243.38
2024-02-12T14:50:37.615Z,97251.66
2024-02-12T14:53:07.072Z,97253.03
2024-02-12T14:55:33.544Z,97259.72
2024-02-12T14:58:00.403Z,97267.72
2024-02-12T15:00:26.987Z,97265.63
2024-02-12T15:02:55.104Z,97259.34
2024-02-12T15:07:48.507Z,97261.69
2024-02-12T15:10:25.644Z,97271.19
2024-02-12T15:12:52.903Z,97280.50
2024-02-12T15:15:21.956Z,97277.53
2024-02-12T15:17:51.892Z,97279.41
2024-02-12T15:20:21.511Z,97284.53
2024-02-12T15:22:49.023Z,97290.94
2024-02-12T15:25:19.519Z,97295.78
2024-02-12T15:27:46.903Z,97292.28
2024-02-12T15:30:15.030Z,97298.22
2024-02-12T15:32:41.520Z,97296.66
2024-02-12T15:35:08.307Z,97300.09
2024-02-12T15:37:34.702Z,97307.56
2024-02-12T15:40:01.542Z,97315.00
2024-02-12T15:42:28.041Z,97318.09
2024-02-12T15:44:54.451Z,97317.03
2024-02-12T15:47:20.936Z,97323.16
2024-02-12T15:49:47.596Z,97326.06
2024-02-12T15:52:14.031Z,97333.59
2024-02-12T15:54:44.199Z,97333.88
2024-02-12T15:57:13.789Z,97334.22
2024-02-12T15:59:40.229Z,97349.97
2024-02-12T16:02:09.454Z,97348.28
2024-02-12T16:04:39.784Z,97349.50
2024-02-12T16:07:09.205Z,97352.38
2024-02-12T16:09:37.863Z,97361.97
2024-02-12T16:12:10.847Z,97354.03
2024-02-12T16:14:37.910Z,97362.47
2024-02-12T16:17:04.775Z,97371.75
2024-02-12T16:19:31.772Z,97369.53
2024-02-12T16:21:59.302Z,97364.66
2024-02-12T16:24:25.958Z,97372.69
2024-02-12T16:26:52.380Z,97379.44
2024-02-12T16:29:21.033Z,97372.56
2024-02-12T16:31:47.685Z,97380.78
2024-02-12T16:34:15.559Z,97384.00
2024-02-12T16:36:42.752Z,97393.16
2024-02-12T16:39:14.443Z,97391.88
2024-02-12T16:41:44.804Z,97392.38
2024-02-12T16:44:11.426Z,97400.09
2024-02-12T16:46:42.235Z,97403.44
2024-02-12T16:49:11.677Z,97403.25
2024-02-12T16:51:38.182Z,97408.59
2024-02-12T16:54:05.741Z,97413.38
2024-02-12T16:56:34.025Z,97412.28
2024-02-12T16:59:00.678Z,97416.72
2024-02-12T17:01:27.087Z,97423.84
2024-02-12T17:03:53.631Z,97424.53
2024-02-12T17:06:23.129Z,97429.09
2024-02-12T17:08:52.821Z,97436.94
2024-02-12T17:11:19.894Z,97437.09
2024-02-12T17:13:46.414Z,97445.13
2024-02-12T17:16:13.030Z,97442.28
2024-02-12T17:18:40.053Z,97451.69
2024-02-12T17:21:06.492Z,97456.94
2024-02-12T17:23:32.909Z,97452.84
2024-02-12T17:25:59.349Z,97458.06
2024-02-12T17:28:25.708Z,97459.25
2024-02-12T17:30:52.233Z,97468.28
2024-02-12T17:33:18.755Z,97466.88
2024-02-12T17:35:45.323Z,97467.06
2024-02-12T17:38:11.808Z,97476.50
2024-02-12T17:40:38.326Z,97482.31
2024-02-12T17:43:05.897Z,97494.44
2024-02-12T17:45:32.287Z,97489.19
2024-02-12T17:47:59.512Z,97493.72
2024-02-12T17:50:26.205Z,97502.38
2024-02-12T17:52:52.632Z,97505.44
2024-02-12T17:55:19.016Z,97514.75
2024-02-12T17:57:45.389Z,97515.66
2024-02-12T18:00:12.950Z,97522.69
2024-02-12T18:02:39.595Z,97526.94
2024-02-12T18:05:06.736Z,97528.34
2024-02-12T18:07:33.523Z,97533.97
2024-02-12T18:10:00.213Z,97536.38
2024-02-12T18:12:27.792Z,97542.97
2024-02-12T18:14:54.513Z,97536.25
2024-02-12T18:17:25.147Z,97537.53
2024-02-12T18:19:53.078Z,97542.09
2024-02-12T18:22:22.584Z,97539.13
2024-02-12T18:24:49.042Z,97532.97
2024-02-12T18:27:16.238Z,97538.31
2024-02-12T18:29:43.525Z,97548.53
2024-02-12T18:32:10.716Z,97549.63
2024-02-12T18:34:38.096Z,97552.59
2024-02-12T18:37:04.994Z,97551.78
2024-02-12T18:39:33.222Z,97551.31
2024-02-12T18:41:59.982Z,97552.41
2024-02-12T18:44:27.459Z,97547.34
2024-02-12T18:46:54.658Z,97547.06
2024-02-12T18:49:22.479Z,97551.41
2024-02-12T18:51:48.943Z,97566.16
2024-02-12T18:54:15.328Z,97569.34
2024-02-12T18:56:41.789Z,97565.09
2024-02-12T18:59:08.286Z,97572.94
2024-02-12T19:01:34.851Z,97598.38
2024-02-12T19:04:01.888Z,97637.34
2024-02-12T19:06:28.531Z,97640.44
2024-02-12T19:08:55.294Z,97639.75
2024-02-12T19:11:22.092Z,97635.56
2024-02-12T19:13:49.534Z,97625.97
2024-02-12T19:16:15.949Z,97627.06
2024-02-12T19:18:44.393Z,97622.81
2024-02-12T19:21:11.124Z,97620.72
2024-02-12T19:23:37.569Z,97629.81
2024-02-12T19:26:05.197Z,97641.59
2024-02-12T19:28:32.113Z,97639.72
2024-02-12T19:30:59.920Z,97646.44
2024-02-12T19:33:26.539Z,97647.75
2024-02-12T19:35:53.043Z,97657.66
2024-02-12T19:38:19.557Z,97664.69
2024-02-12T19:40:45.988Z,97668.13
2024-02-12T19:43:12.792Z,97680.13
2024-02-12T19:45:39.297Z,97683.28
2024-02-12T19:48:06.594Z,97689.25
2024-02-12T19:50:33.082Z,97687.50
2024-02-12T19:52:59.482Z,97701.47
2024-02-12T19:55:26.775Z,97699.13
2024-02-12T19:57:53.214Z,97704.31
2024-02-12T20:00:19.688Z,97706.09
2024-02-12T20:02:46.514Z,97705.75
2024-02-12T20:05:13.183Z,97706.13
2024-02-12T20:07:39.750Z,97709.13
2024-02-12T20:10:07.940Z,97725.41
2024-02-12T20:12:37.732Z,97717.03
2024-02-12T20:15:04.626Z,97733.34
2024-02-12T20:17:31.245Z,97743.69
2024-02-12T20:19:57.685Z,97747.97
2024-02-12T20:22:24.109Z,97748.97
2024-02-12T20:24:54.773Z,97746.00
2024-02-12T20:27:21.476Z,97749.47
2024-02-12T20:29:48.498Z,97741.72
2024-02-12T20:32:15.073Z,97739.56
2024-02-12T20:34:41.611Z,97745.72
2024-02-12T20:37:11.824Z,97748.56
2024-02-12T20:39:38.568Z,97749.88
2024-02-12T20:42:05.713Z,97749.88
2024-02-12T20:44:33.004Z,97746.41
2024-02-12T20:47:04.053Z,97751.25
2024-02-12T20:49:31.230Z,97755.53
2024-02-12T20:51:57.864Z,97759.78
2024-02-12T20:54:32.334Z,97767.31
2024-02-12T20:57:00.323Z,97774.28
2024-02-12T20:59:27.524Z,97782.09
2024-02-12T21:01:54.003Z,97783.19
2024-02-12T21:04:20.727Z,97787.75
2024-02-12T21:06:47.249Z,97788.03
2024-02-12T21:09:14.763Z,97792.28
2024-02-12T21:11:43.904Z,97794.00
2024-02-12T21:14:12.149Z,97805.78
2024-02-12T21:16:39.522Z,97797.47
2024-02-12T21:19:08.580Z,97809.50
2024-02-12T21:21:36.385Z,97809.03
2024-02-12T21:24:02.831Z,97810.81
2024-02-12T21:26:29.267Z,97817.44
2024-02-12T21:28:56.366Z,97821.22
2024-02-12T21:31:22.792Z,97818.63
2024-02-12T21:33:49.281Z,97833.59
2024-02-12T21:36:15.980Z,97834.69
2024-02-12T21:38:43.060Z,97829.91
2024-02-12T21:41:28.475Z,97833.38
2024-02-12T21:43:54.900Z,97839.00
2024-02-12T21:46:21.338Z,97845.47
2024-02-12T21:48:48.086Z,97849.50
2024-02-12T21:51:14.598Z,97855.16
2024-02-12T21:53:41.080Z,97851.19
2024-02-12T21:56:08.139Z,97861.38
2024-02-12T21:58:34.710Z,97859.50
2024-02-12T22:01:04.468Z,97865.44
2024-02-12T22:03:31.433Z,97868.41
2024-02-12T22:05:59.260Z,97866.91
2024-02-12T22:08:26.129Z,97866.97
2024-02-12T22:10:52.521Z,97877.38
2024-02-12T22:13:21.953Z,97883.03
2024-02-12T22:15:51.348Z,97888.94
2024-02-12T22:18:17.901Z,97887.13
2024-02-12T22:20:44.845Z,97887.22
2024-02-12T22:23:11.572Z,97888.22
2024-02-12T22:25:39.039Z,97888.53
2024-02-12T22:28:05.988Z,97900.09
2024-02-12T22:30:33.397Z,97902.25
2024-02-12T22:33:00.434Z,97908.19
2024-02-12T22:35:26.919Z,97909.25
2024-02-12T22:37:53.790Z,97899.16
2024-02-12T22:40:20.457Z,97911.19
2024-02-12T22:42:46.815Z,97906.44
2024-02-12T22:45:13.412Z,97916.13
2024-02-12T22:47:40.016Z,97910.25
2024-02-12T22:50:06.773Z,97914.50
2024-02-12T22:52:33.211Z,97917.78
2024-02-12T22:55:00.858Z,97920.50
2024-02-12T22:57:27.498Z,97923.44
2024-02-12T22:59:53.925Z,97924.00
2024-02-12T23:02:20.478Z,97933.91
2024-02-12T23:04:46.975Z,97943.84
2024-02-12T23:07:13.641Z,97951.94
2024-02-12T23:09:40.017Z,97941.75
2024-02-12T23:12:06.914Z,97954.84
2024-02-12T23:14:33.325Z,97960.19
2024-02-12T23:16:59.836Z,97956.53
2024-02-12T23:19:26.521Z,97959.22
2024-02-12T23:21:53.609Z,97965.13
2024-02-12T23:24:20.003Z,97973.16
2024-02-12T23:26:49.457Z,97974.81
2024-02-12T23:29:16.561Z,97980.88
2024-02-12T23:31:43.500Z,97982.09
2024-02-12T23:34:09.969Z,97988.81
2024-02-12T23:36:36.376Z,97985.63
2024-02-12T23:39:05.612Z,97991.84
2024-02-12T23:41:32.070Z,97991.31
2024-02-12T23:43:59.835Z,97999.28
2024-02-12T23:46:26.200Z,97997.16
2024-02-12T23:48:52.704Z,98002.50
2024-02-12T23:51:19.132Z,97998.53
2024-02-12T23:53:45.558Z,97998.00
2024-02-12T23:56:15.200Z,98007.88
2024-02-12T23:58:41.572Z,98014.59
